sensor_id;sensor_type;location;lat;lon;timestamp;pressure;altitude;pressure_sealevel;temperature;humidity
68075;BME280;54864;52.002;5.468;2023-04-28T00:00:25;101262.47;;;11.59;43.44
68075;BME280;54864;52.002;5.468;2023-04-28T00:01:26;101258.19;;;11.57;43.63
68075;BME280;54864;52.002;5.468;2023-04-28T00:02:28;101261.44;;;11.63;44.58
68075;BME280;54864;52.002;5.468;2023-04-28T00:03:29;101263.59;;;11.54;43.57
68075;BME280;54864;52.002;5.468;2023-04-28T00:04:31;101263.59;;;11.54;43.21
68075;BME280;54864;52.002;5.468;2023-04-28T00:05:31;101257.53;;;11.52;44.10
68075;BME280;54864;52.002;5.468;2023-04-28T00:06:33;101249.06;;;11.43;44.36
68075;BME280;54864;52.002;5.468;2023-04-28T00:07:34;101247.75;;;11.54;43.30
68075;BME280;54864;52.002;5.468;2023-04-28T00:08:36;101251.13;;;11.57;44.40
68075;BME280;54864;52.002;5.468;2023-04-28T00:09:37;101242.47;;;11.54;45.00
68075;BME280;54864;52.002;5.468;2023-04-28T00:10:42;101238.13;;;11.53;43.38
68075;BME280;54864;52.002;5.468;2023-04-28T00:11:43;101235.47;;;11.53;43.33
68075;BME280;54864;52.002;5.468;2023-04-28T00:12:45;101234.34;;;11.58;44.05
68075;BME280;54864;52.002;5.468;2023-04-28T00:13:47;101235.16;;;11.60;44.71
68075;BME280;54864;52.002;5.468;2023-04-28T00:14:49;101237.25;;;11.52;43.84
68075;BME280;54864;52.002;5.468;2023-04-28T00:15:50;101237.41;;;11.49;44.01
68075;BME280;54864;52.002;5.468;2023-04-28T00:16:53;101239.97;;;11.51;43.82
68075;BME280;54864;52.002;5.468;2023-04-28T00:17:56;101235.34;;;11.56;43.67
68075;BME280;54864;52.002;5.468;2023-04-28T00:19:01;101239.97;;;11.51;43.64
68075;BME280;54864;52.002;5.468;2023-04-28T00:20:05;101221.69;;;11.46;43.20
68075;BME280;54864;52.002;5.468;2023-04-28T00:21:09;101218.31;;;11.42;44.13
68075;BME280;54864;52.002;5.468;2023-04-28T00:22:10;101215.59;;;11.44;44.53
68075;BME280;54864;52.002;5.468;2023-04-28T00:23:11;101211.44;;;11.38;43.81
68075;BME280;54864;52.002;5.468;2023-04-28T00:24:12;101206.16;;;11.38;45.18
68075;BME280;54864;52.002;5.468;2023-04-28T00:25:14;101203.41;;;11.41;44.17
68075;BME280;54864;52.002;5.468;2023-04-28T00:26:17;101210.53;;;11.39;43.56
68075;BME280;54864;52.002;5.468;2023-04-28T00:27:19;101205.84;;;11.46;44.21
68075;BME280;54864;52.002;5.468;2023-04-28T00:28:20;101209.53;;;11.42;43.80
68075;BME280;54864;52.002;5.468;2023-04-28T00:29:23;101206.69;;;11.47;43.20
68075;BME280;54864;52.002;5.468;2023-04-28T00:30:28;101213.75;;;11.46;43.65
68075;BME280;54864;52.002;5.468;2023-04-28T00:31:30;101205.25;;;11.39;44.16
68075;BME280;54864;52.002;5.468;2023-04-28T00:32:30;101206.84;;;11.43;44.15
68075;BME280;54864;52.002;5.468;2023-04-28T00:33:32;101198.84;;;11.45;44.10
68075;BME280;54864;52.002;5.468;2023-04-28T00:34:33;101200.50;;;11.48;44.91
68075;BME280;54864;52.002;5.468;2023-04-28T00:35:36;101197.19;;;11.42;45.06
68075;BME280;54864;52.002;5.468;2023-04-28T00:36:37;101192.78;;;11.43;44.21
68075;BME280;54864;52.002;5.468;2023-04-28T00:37:39;101188.09;;;11.50;45.32
68075;BME280;54864;52.002;5.468;2023-04-28T00:38:39;101190.72;;;11.50;44.07
68075;BME280;54864;52.002;5.468;2023-04-28T00:39:41;101186.31;;;11.50;43.92
68075;BME280;54864;52.002;5.468;2023-04-28T00:40:46;101189.72;;;11.52;45.27
68075;BME280;54864;52.002;5.468;2023-04-28T00:41:51;101184.78;;;11.65;45.69
68075;BME280;54864;52.002;5.468;2023-04-28T00:42:51;101182.84;;;11.68;44.81
68075;BME280;54864;52.002;5.468;2023-04-28T00:43:53;101177.91;;;11.61;44.95
68075;BME280;54864;52.002;5.468;2023-04-28T00:44:55;101181.22;;;11.66;46.36
68075;BME280;54864;52.002;5.468;2023-04-28T00:45:57;101185.25;;;11.74;46.82
68075;BME280;54864;52.002;5.468;2023-04-28T00:46:58;101173.66;;;11.79;47.53
68075;BME280;54864;52.002;5.468;2023-04-28T00:48:01;101186.88;;;11.79;47.43
68075;BME280;54864;52.002;5.468;2023-04-28T00:49:02;101187.38;;;11.87;48.65
68075;BME280;54864;52.002;5.468;2023-04-28T00:50:05;101181.88;;;11.71;48.13
68075;BME280;54864;52.002;5.468;2023-04-28T00:51:09;101188.69;;;11.77;49.74
68075;BME280;54864;52.002;5.468;2023-04-28T00:52:13;101185.69;;;11.64;50.29
68075;BME280;54864;52.002;5.468;2023-04-28T00:53:17;101196.59;;;11.56;51.28
68075;BME280;54864;52.002;5.468;2023-04-28T00:54:19;101189.41;;;11.60;52.79
68075;BME280;54864;52.002;5.468;2023-04-28T00:55:20;101193.81;;;11.59;54.27
68075;BME280;54864;52.002;5.468;2023-04-28T00:56:25;101189.59;;;11.55;56.16
68075;BME280;54864;52.002;5.468;2023-04-28T00:57:30;101185.72;;;11.43;57.25
68075;BME280;54864;52.002;5.468;2023-04-28T00:58:32;101188.75;;;11.34;55.94
68075;BME280;54864;52.002;5.468;2023-04-28T00:59:33;101185.91;;;11.39;57.26
68075;BME280;54864;52.002;5.468;2023-04-28T01:00:37;101176.19;;;11.39;54.78
68075;BME280;54864;52.002;5.468;2023-04-28T01:01:38;101183.59;;;11.31;56.24
68075;BME280;54864;52.002;5.468;2023-04-28T01:02:40;101180.56;;;11.40;57.84
68075;BME280;54864;52.002;5.468;2023-04-28T01:03:41;101179.50;;;11.44;58.18
68075;BME280;54864;52.002;5.468;2023-04-28T01:04:45;101164.78;;;11.19;56.95
68075;BME280;54864;52.002;5.468;2023-04-28T01:05:46;101164.72;;;11.20;58.40
68075;BME280;54864;52.002;5.468;2023-04-28T01:06:50;101168.53;;;11.13;56.96
68075;BME280;54864;52.002;5.468;2023-04-28T01:07:52;101168.88;;;11.05;57.45
68075;BME280;54864;52.002;5.468;2023-04-28T01:08:54;101164.59;;;11.01;58.11
68075;BME280;54864;52.002;5.468;2023-04-28T01:09:55;101165.47;;;11.02;59.67
68075;BME280;54864;52.002;5.468;2023-04-28T01:10:57;101162.81;;;11.02;59.13
68075;BME280;54864;52.002;5.468;2023-04-28T01:11:57;101156.03;;;10.96;60.39
68075;BME280;54864;52.002;5.468;2023-04-28T01:13:00;101156.88;;;10.97;59.68
68075;BME280;54864;52.002;5.468;2023-04-28T01:14:01;101160.94;;;10.84;56.28
68075;BME280;54864;52.002;5.468;2023-04-28T01:15:03;101167.09;;;10.84;58.92
68075;BME280;54864;52.002;5.468;2023-04-28T01:16:06;101167.47;;;10.75;61.02
68075;BME280;54864;52.002;5.468;2023-04-28T01:17:08;101156.78;;;10.78;61.68
68075;BME280;54864;52.002;5.468;2023-04-28T01:18:09;101161.69;;;10.87;59.96
68075;BME280;54864;52.002;5.468;2023-04-28T01:19:17;101162.97;;;10.77;60.73
68075;BME280;54864;52.002;5.468;2023-04-28T01:20:22;101164.56;;;10.81;61.65
68075;BME280;54864;52.002;5.468;2023-04-28T01:21:26;101159.16;;;10.84;61.00
68075;BME280;54864;52.002;5.468;2023-04-28T01:22:29;101163.66;;;10.82;61.18
68075;BME280;54864;52.002;5.468;2023-04-28T01:23:31;101156.22;;;10.92;59.95
68075;BME280;54864;52.002;5.468;2023-04-28T01:24:33;101156.94;;;10.95;60.84
68075;BME280;54864;52.002;5.468;2023-04-28T01:25:35;101155.97;;;10.98;61.89
68075;BME280;54864;52.002;5.468;2023-04-28T01:26:35;101148.84;;;11.00;61.82
68075;BME280;54864;52.002;5.468;2023-04-28T01:27:37;101162.88;;;11.00;60.96
68075;BME280;54864;52.002;5.468;2023-04-28T01:28:38;101160.25;;;11.00;61.09
68075;BME280;54864;52.002;5.468;2023-04-28T01:29:41;101161.03;;;11.02;62.39
68075;BME280;54864;52.002;5.468;2023-04-28T01:30:42;101161.81;;;11.06;61.63
68075;BME280;54864;52.002;5.468;2023-04-28T01:31:43;101160.75;;;11.10;62.31
68075;BME280;54864;52.002;5.468;2023-04-28T01:32:44;101161.69;;;11.09;61.97
68075;BME280;54864;52.002;5.468;2023-04-28T01:33:46;101156.34;;;11.10;62.25
68075;BME280;54864;52.002;5.468;2023-04-28T01:34:46;101158.13;;;11.10;62.52
68075;BME280;54864;52.002;5.468;2023-04-28T01:35:48;101156.41;;;11.09;62.09
68075;BME280;54864;52.002;5.468;2023-04-28T01:36:49;101149.22;;;11.13;61.32
68075;BME280;54864;52.002;5.468;2023-04-28T01:37:54;101149.28;;;11.11;61.79
68075;BME280;54864;52.002;5.468;2023-04-28T01:38:55;101153.44;;;11.17;60.25
68075;BME280;54864;52.002;5.468;2023-04-28T01:40:00;101152.66;;;11.15;60.94
68075;BME280;54864;52.002;5.468;2023-04-28T01:41:01;101143.88;;;11.14;61.52
68075;BME280;54864;52.002;5.468;2023-04-28T01:42:03;101142.34;;;11.08;60.58
68075;BME280;54864;52.002;5.468;2023-04-28T01:43:04;101138.91;;;11.06;60.56
68075;BME280;54864;52.002;5.468;2023-04-28T01:44:06;101139.53;;;10.91;57.99
68075;BME280;54864;52.002;5.468;2023-04-28T01:45:08;101134.31;;;10.90;58.22
68075;BME280;54864;52.002;5.468;2023-04-28T01:46:11;101133.28;;;10.94;58.95
68075;BME280;54864;52.002;5.468;2023-04-28T01:47:11;101127.06;;;10.95;60.75
68075;BME280;54864;52.002;5.468;2023-04-28T01:48:13;101130.31;;;11.01;60.08
68075;BME280;54864;52.002;5.468;2023-04-28T01:49:14;101126.09;;;10.97;59.86
68075;BME280;54864;52.002;5.468;2023-04-28T01:50:17;101123.31;;;11.00;60.96
68075;BME280;54864;52.002;5.468;2023-04-28T01:51:17;101117.03;;;10.83;58.94
68075;BME280;54864;52.002;5.468;2023-04-28T01:52:19;101120.59;;;10.82;59.58
68075;BME280;54864;52.002;5.468;2023-04-28T01:53:22;101118.50;;;10.90;59.40
68075;BME280;54864;52.002;5.468;2023-04-28T01:54:27;101123.63;;;10.93;58.26
68075;BME280;54864;52.002;5.468;2023-04-28T01:55:38;101117.50;;;10.92;57.35
68075;BME280;54864;52.002;5.468;2023-04-28T01:56:39;101117.75;;;10.86;57.14
68075;BME280;54864;52.002;5.468;2023-04-28T01:57:41;101112.75;;;10.80;57.24
68075;BME280;54864;52.002;5.468;2023-04-28T01:58:42;101111.63;;;10.86;57.35
68075;BME280;54864;52.002;5.468;2023-04-28T01:59:43;101111.63;;;10.86;54.96
68075;BME280;54864;52.002;5.468;2023-04-28T02:00:45;101109.13;;;10.83;54.96
68075;BME280;54864;52.002;5.468;2023-04-28T02:01:45;101111.09;;;10.77;54.79
68075;BME280;54864;52.002;5.468;2023-04-28T02:02:47;101113.44;;;10.63;56.44
68075;BME280;54864;52.002;5.468;2023-04-28T02:03:48;101105.19;;;10.51;54.33
68075;BME280;54864;52.002;5.468;2023-04-28T02:04:50;101105.91;;;10.54;55.56
68075;BME280;54864;52.002;5.468;2023-04-28T02:05:51;101103.88;;;10.61;54.98
68075;BME280;54864;52.002;5.468;2023-04-28T02:06:55;101103.28;;;10.54;53.45
68075;BME280;54864;52.002;5.468;2023-04-28T02:07:55;101105.78;;;10.57;55.73
68075;BME280;54864;52.002;5.468;2023-04-28T02:08:57;101102.53;;;10.51;55.22
68075;BME280;54864;52.002;5.468;2023-04-28T02:09:58;101109.28;;;10.58;54.25
68075;BME280;54864;52.002;5.468;2023-04-28T02:11:01;101112.59;;;10.63;54.35
68075;BME280;54864;52.002;5.468;2023-04-28T02:12:03;101110.06;;;10.60;54.54
68075;BME280;54864;52.002;5.468;2023-04-28T02:13:05;101103.81;;;10.62;55.92
68075;BME280;54864;52.002;5.468;2023-04-28T02:14:05;101106.19;;;10.68;57.30
68075;BME280;54864;52.002;5.468;2023-04-28T02:15:10;101096.50;;;10.69;55.93
68075;BME280;54864;52.002;5.468;2023-04-28T02:16:10;101105.09;;;10.74;55.33
68075;BME280;54864;52.002;5.468;2023-04-28T02:17:12;101100.00;;;10.69;53.87
68075;BME280;54864;52.002;5.468;2023-04-28T02:18:14;101104.63;;;10.64;56.13
68075;BME280;54864;52.002;5.468;2023-04-28T02:19:16;101088.72;;;10.66;55.24
68075;BME280;54864;52.002;5.468;2023-04-28T02:20:17;101089.59;;;10.66;54.18
68075;BME280;54864;52.002;5.468;2023-04-28T02:21:18;101092.28;;;10.65;54.02
68075;BME280;54864;52.002;5.468;2023-04-28T02:22:22;101085.38;;;10.62;53.09
68075;BME280;54864;52.002;5.468;2023-04-28T02:23:24;101085.38;;;10.62;52.84
68075;BME280;54864;52.002;5.468;2023-04-28T02:24:25;101086.47;;;10.57;52.42
68075;BME280;54864;52.002;5.468;2023-04-28T02:25:27;101079.09;;;10.65;52.77
68075;BME280;54864;52.002;5.468;2023-04-28T02:26:29;101088.53;;;10.70;54.87
68075;BME280;54864;52.002;5.468;2023-04-28T02:27:31;101082.66;;;10.64;52.12
68075;BME280;54864;52.002;5.468;2023-04-28T02:28:35;101079.84;;;10.68;53.26
68075;BME280;54864;52.002;5.468;2023-04-28T02:29:41;101084.66;;;10.79;52.92
68075;BME280;54864;52.002;5.468;2023-04-28T02:30:45;101084.72;;;10.77;51.96
68075;BME280;54864;52.002;5.468;2023-04-28T02:31:49;101083.00;;;10.76;53.89
68075;BME280;54864;52.002;5.468;2023-04-28T02:32:50;101080.91;;;10.85;53.21
68075;BME280;54864;52.002;5.468;2023-04-28T02:33:51;101083.53;;;10.85;52.50
68075;BME280;54864;52.002;5.468;2023-04-28T02:34:52;101072.72;;;10.91;53.45
68075;BME280;54864;52.002;5.468;2023-04-28T02:35:57;101073.13;;;10.82;52.79
68075;BME280;54864;52.002;5.468;2023-04-28T02:36:58;101070.59;;;10.78;52.18
68075;BME280;54864;52.002;5.468;2023-04-28T02:38:00;101074.09;;;10.79;52.50
68075;BME280;54864;52.002;5.468;2023-04-28T02:39:03;101069.09;;;10.73;53.50
68075;BME280;54864;52.002;5.468;2023-04-28T02:40:06;101059.00;;;10.83;53.40
68075;BME280;54864;52.002;5.468;2023-04-28T02:41:07;101053.72;;;10.83;54.50
68075;BME280;54864;52.002;5.468;2023-04-28T02:42:10;101052.28;;;10.75;53.25
68075;BME280;54864;52.002;5.468;2023-04-28T02:43:11;101053.34;;;10.71;52.81
68075;BME280;54864;52.002;5.468;2023-04-28T02:44:13;101047.78;;;10.57;51.67
68075;BME280;54864;52.002;5.468;2023-04-28T02:45:14;101045.94;;;10.59;52.11
68075;BME280;54864;52.002;5.468;2023-04-28T02:46:15;101049.44;;;10.60;53.30
68075;BME280;54864;52.002;5.468;2023-04-28T02:47:16;101050.09;;;10.65;53.98
68075;BME280;54864;52.002;5.468;2023-04-28T02:48:18;101050.28;;;10.60;52.40
68075;BME280;54864;52.002;5.468;2023-04-28T02:49:18;101047.00;;;10.55;53.07
68075;BME280;54864;52.002;5.468;2023-04-28T02:50:20;101047.41;;;10.66;53.42
68075;BME280;54864;52.002;5.468;2023-04-28T02:51:21;101038.31;;;10.73;54.67
68075;BME280;54864;52.002;5.468;2023-04-28T02:52:22;101041.00;;;10.72;52.66
68075;BME280;54864;52.002;5.468;2023-04-28T02:53:23;101035.78;;;10.70;52.87
68075;BME280;54864;52.002;5.468;2023-04-28T02:54:29;101046.94;;;10.77;53.74
68075;BME280;54864;52.002;5.468;2023-04-28T02:55:32;101046.69;;;10.83;53.30
68075;BME280;54864;52.002;5.468;2023-04-28T02:56:33;101036.47;;;10.75;53.07
68075;BME280;54864;52.002;5.468;2023-04-28T02:57:36;101038.69;;;10.85;52.34
68075;BME280;54864;52.002;5.468;2023-04-28T02:58:37;101037.25;;;10.77;52.85
68075;BME280;54864;52.002;5.468;2023-04-28T02:59:38;101033.09;;;10.72;53.50
68075;BME280;54864;52.002;5.468;2023-04-28T03:00:40;101021.69;;;10.71;53.36
68075;BME280;54864;52.002;5.468;2023-04-28T03:01:43;101034.75;;;10.74;55.07
68075;BME280;54864;52.002;5.468;2023-04-28T03:02:45;101028.47;;;10.77;52.42
68075;BME280;54864;52.002;5.468;2023-04-28T03:03:45;101023.28;;;10.75;52.92
68075;BME280;54864;52.002;5.468;2023-04-28T03:04:47;101023.94;;;10.80;52.77
68075;BME280;54864;52.002;5.468;2023-04-28T03:05:48;101021.50;;;10.76;54.78
68075;BME280;54864;52.002;5.468;2023-04-28T03:06:50;101023.47;;;10.71;54.23
68075;BME280;54864;52.002;5.468;2023-04-28T03:07:51;101028.94;;;10.87;53.63
68075;BME280;54864;52.002;5.468;2023-04-28T03:08:53;101015.03;;;10.83;54.10
68075;BME280;54864;52.002;5.468;2023-04-28T03:09:53;101017.53;;;10.86;53.46
68075;BME280;54864;52.002;5.468;2023-04-28T03:10:55;101026.44;;;10.84;52.66
68075;BME280;54864;52.002;5.468;2023-04-28T03:11:56;101020.75;;;10.93;53.36
68075;BME280;54864;52.002;5.468;2023-04-28T03:12:59;101012.72;;;10.75;51.55
68075;BME280;54864;52.002;5.468;2023-04-28T03:14:00;101009.22;;;10.75;52.43
68075;BME280;54864;52.002;5.468;2023-04-28T03:15:05;101005.41;;;10.62;52.21
68075;BME280;54864;52.002;5.468;2023-04-28T03:16:07;101004.41;;;10.64;52.73
68075;BME280;54864;52.002;5.468;2023-04-28T03:17:12;100999.06;;;10.66;52.49
68075;BME280;54864;52.002;5.468;2023-04-28T03:18:14;101006.06;;;10.67;52.35
68075;BME280;54864;52.002;5.468;2023-04-28T03:19:16;101000.78;;;10.67;53.64
68075;BME280;54864;52.002;5.468;2023-04-28T03:20:17;100993.41;;;10.55;53.17
68075;BME280;54864;52.002;5.468;2023-04-28T03:21:21;100998.56;;;10.58;52.78
68075;BME280;54864;52.002;5.468;2023-04-28T03:22:25;100998.28;;;10.64;53.29
68075;BME280;54864;52.002;5.468;2023-04-28T03:23:26;101003.44;;;10.67;52.18
68075;BME280;54864;52.002;5.468;2023-04-28T03:24:27;101004.34;;;10.66;52.48
68075;BME280;54864;52.002;5.468;2023-04-28T03:25:31;101009.09;;;10.58;52.98
68075;BME280;54864;52.002;5.468;2023-04-28T03:26:32;101012.84;;;10.52;53.04
68075;BME280;54864;52.002;5.468;2023-04-28T03:27:36;101013.56;;;10.56;52.53
68075;BME280;54864;52.002;5.468;2023-04-28T03:28:38;101022.59;;;10.50;52.15
68075;BME280;54864;52.002;5.468;2023-04-28T03:29:39;101018.56;;;10.41;52.34
68075;BME280;54864;52.002;5.468;2023-04-28T03:30:40;101016.84;;;10.40;53.80
68075;BME280;54864;52.002;5.468;2023-04-28T03:31:42;101020.69;;;10.54;53.83
68075;BME280;54864;52.002;5.468;2023-04-28T03:32:42;101011.72;;;10.58;53.82
68075;BME280;54864;52.002;5.468;2023-04-28T03:33:44;101019.31;;;10.65;52.99
68075;BME280;54864;52.002;5.468;2023-04-28T03:34:46;101009.81;;;10.82;53.84
68075;BME280;54864;52.002;5.468;2023-04-28T03:35:47;101019.97;;;10.91;53.89
68075;BME280;54864;52.002;5.468;2023-04-28T03:36:48;101011.13;;;10.92;53.94
68075;BME280;54864;52.002;5.468;2023-04-28T03:37:53;101019.13;;;10.90;54.88
68075;BME280;54864;52.002;5.468;2023-04-28T03:38:53;101014.22;;;11.01;55.38
68075;BME280;54864;52.002;5.468;2023-04-28T03:39:55;101007.91;;;11.05;54.89
68075;BME280;54864;52.002;5.468;2023-04-28T03:40:55;101007.56;;;11.13;54.46
68075;BME280;54864;52.002;5.468;2023-04-28T03:42:01;101002.16;;;11.16;54.26
68075;BME280;54864;52.002;5.468;2023-04-28T03:43:01;100997.22;;;11.08;54.06
68075;BME280;54864;52.002;5.468;2023-04-28T03:44:08;100992.75;;;11.10;53.63
68075;BME280;54864;52.002;5.468;2023-04-28T03:45:09;100990.97;;;11.11;54.85
68075;BME280;54864;52.002;5.468;2023-04-28T03:46:11;100987.41;;;11.12;52.41
68075;BME280;54864;52.002;5.468;2023-04-28T03:47:12;100984.09;;;11.07;52.71
68075;BME280;54864;52.002;5.468;2023-04-28T03:48:14;100986.19;;;10.99;53.57
68075;BME280;54864;52.002;5.468;2023-04-28T03:49:15;100982.69;;;10.98;53.67
68075;BME280;54864;52.002;5.468;2023-04-28T03:50:16;100987.72;;;11.04;53.07
68075;BME280;54864;52.002;5.468;2023-04-28T03:51:18;100994.53;;;10.90;53.03
68075;BME280;54864;52.002;5.468;2023-04-28T03:52:20;100992.66;;;10.92;51.83
68075;BME280;54864;52.002;5.468;2023-04-28T03:53:23;100992.59;;;10.93;52.83
68075;BME280;54864;52.002;5.468;2023-04-28T03:54:25;100991.53;;;10.97;52.91
68075;BME280;54864;52.002;5.468;2023-04-28T03:55:25;100995.03;;;10.98;53.72
68075;BME280;54864;52.002;5.468;2023-04-28T03:56:27;100986.19;;;10.99;52.53
68075;BME280;54864;52.002;5.468;2023-04-28T03:57:28;100990.69;;;10.97;52.56
68075;BME280;54864;52.002;5.468;2023-04-28T03:58:32;100991.81;;;10.91;52.89
68075;BME280;54864;52.002;5.468;2023-04-28T03:59:34;100986.25;;;10.97;53.20
68075;BME280;54864;52.002;5.468;2023-04-28T04:00:36;100979.78;;;11.04;54.53
68075;BME280;54864;52.002;5.468;2023-04-28T04:01:36;100976.50;;;10.99;53.98
68075;BME280;54864;52.002;5.468;2023-04-28T04:02:38;100981.56;;;11.04;54.09
68075;BME280;54864;52.002;5.468;2023-04-28T04:03:39;100975.97;;;11.11;54.06
68075;BME280;54864;52.002;5.468;2023-04-28T04:04:40;100965.72;;;11.05;53.73
68075;BME280;54864;52.002;5.468;2023-04-28T04:05:41;100973.88;;;10.99;54.76
68075;BME280;54864;52.002;5.468;2023-04-28T04:06:43;100970.66;;;10.93;54.25
68075;BME280;54864;52.002;5.468;2023-04-28T04:07:43;100974.78;;;10.98;53.07
68075;BME280;54864;52.002;5.468;2023-04-28T04:08:45;100972.81;;;11.03;55.04
68075;BME280;54864;52.002;5.468;2023-04-28T04:09:49;100974.34;;;11.09;55.17
68075;BME280;54864;52.002;5.468;2023-04-28T04:10:51;100970.34;;;11.19;55.46
68075;BME280;54864;52.002;5.468;2023-04-28T04:11:54;100970.50;;;11.16;54.30
68075;BME280;54864;52.002;5.468;2023-04-28T04:12:55;100970.34;;;11.19;55.03
68075;BME280;54864;52.002;5.468;2023-04-28T04:13:58;100964.09;;;11.22;55.65
68075;BME280;54864;52.002;5.468;2023-04-28T04:15:03;100963.94;;;11.25;54.23
68075;BME280;54864;52.002;5.468;2023-04-28T04:16:05;100956.75;;;11.28;54.64
68075;BME280;54864;52.002;5.468;2023-04-28T04:17:07;100959.16;;;11.14;53.78
68075;BME280;54864;52.002;5.468;2023-04-28T04:18:07;100961.88;;;11.13;54.68
68075;BME280;54864;52.002;5.468;2023-04-28T04:19:09;100957.44;;;10.93;53.93
68075;BME280;54864;52.002;5.468;2023-04-28T04:20:15;100958.53;;;10.89;54.21
68075;BME280;54864;52.002;5.468;2023-04-28T04:21:29;100954.75;;;10.94;55.04
68075;BME280;54864;52.002;5.468;2023-04-28T04:22:31;100953.63;;;11.00;55.19
68075;BME280;54864;52.002;5.468;2023-04-28T04:23:35;100947.28;;;11.04;55.90
68075;BME280;54864;52.002;5.468;2023-04-28T04:24:36;100949.59;;;11.11;55.35
68075;BME280;54864;52.002;5.468;2023-04-28T04:25:37;100949.81;;;11.07;56.28
68075;BME280;54864;52.002;5.468;2023-04-28T04:26:38;100949.47;;;11.15;56.14
68075;BME280;54864;52.002;5.468;2023-04-28T04:27:40;100944.09;;;11.16;54.92
68075;BME280;54864;52.002;5.468;2023-04-28T04:28:43;100948.38;;;11.19;55.36
68075;BME280;54864;52.002;5.468;2023-04-28T04:29:45;100944.81;;;11.20;56.17
68075;BME280;54864;52.002;5.468;2023-04-28T04:30:47;100943.25;;;11.16;54.97
68075;BME280;54864;52.002;5.468;2023-04-28T04:31:49;100946.25;;;11.08;54.97
68075;BME280;54864;52.002;5.468;2023-04-28T04:32:49;100945.31;;;11.09;55.26
68075;BME280;54864;52.002;5.468;2023-04-28T04:33:54;100942.47;;;11.14;55.96
68075;BME280;54864;52.002;5.468;2023-04-28T04:34:54;100941.97;;;11.05;55.98
68075;BME280;54864;52.002;5.468;2023-04-28T04:35:56;100943.91;;;11.00;54.63
68075;BME280;54864;52.002;5.468;2023-04-28T04:36:57;100940.19;;;11.06;56.33
68075;BME280;54864;52.002;5.468;2023-04-28T04:37:59;100942.00;;;11.04;56.19
68075;BME280;54864;52.002;5.468;2023-04-28T04:39:00;100944.00;;;10.99;56.63
68075;BME280;54864;52.002;5.468;2023-04-28T04:40:02;100941.34;;;10.99;56.13
68075;BME280;54864;52.002;5.468;2023-04-28T04:41:04;100944.59;;;10.85;57.58
68075;BME280;54864;52.002;5.468;2023-04-28T04:42:06;100936.63;;;10.87;58.00
68075;BME280;54864;52.002;5.468;2023-04-28T04:43:06;100939.84;;;10.93;58.85
68075;BME280;54864;52.002;5.468;2023-04-28T04:44:08;100941.41;;;10.97;57.49
68075;BME280;54864;52.002;5.468;2023-04-28T04:45:09;100938.41;;;11.06;57.64
68075;BME280;54864;52.002;5.468;2023-04-28T04:46:13;100932.84;;;11.13;57.36
68075;BME280;54864;52.002;5.468;2023-04-28T04:47:14;100934.34;;;11.18;57.35
68075;BME280;54864;52.002;5.468;2023-04-28T04:48:15;100936.78;;;11.23;57.70
68075;BME280;54864;52.002;5.468;2023-04-28T04:49:16;100935.63;;;11.28;58.31
68075;BME280;54864;52.002;5.468;2023-04-28T04:50:23;100938.13;;;11.31;58.59
68075;BME280;54864;52.002;5.468;2023-04-28T04:51:24;100941.47;;;11.35;57.97
68075;BME280;54864;52.002;5.468;2023-04-28T04:52:27;100935.41;;;11.33;56.81
68075;BME280;54864;52.002;5.468;2023-04-28T04:53:30;100935.34;;;11.34;57.04
68075;BME280;54864;52.002;5.468;2023-04-28T04:54:32;100935.06;;;11.40;57.50
68075;BME280;54864;52.002;5.468;2023-04-28T04:55:35;100927.06;;;11.42;57.00
68075;BME280;54864;52.002;5.468;2023-04-28T04:56:37;100930.69;;;11.39;57.65
68075;BME280;54864;52.002;5.468;2023-04-28T04:57:38;100927.00;;;11.43;57.33
68075;BME280;54864;52.002;5.468;2023-04-28T04:58:42;100920.91;;;11.41;57.06
68075;BME280;54864;52.002;5.468;2023-04-28T04:59:43;100921.84;;;11.40;56.26
68075;BME280;54864;52.002;5.468;2023-04-28T05:00:45;100927.69;;;11.47;57.45
68075;BME280;54864;52.002;5.468;2023-04-28T05:01:47;100923.13;;;11.51;57.86
68075;BME280;54864;52.002;5.468;2023-04-28T05:02:51;100928.06;;;11.39;57.76
68075;BME280;54864;52.002;5.468;2023-04-28T05:03:52;100920.44;;;11.33;56.72
68075;BME280;54864;52.002;5.468;2023-04-28T05:04:53;100921.91;;;11.39;56.60
68075;BME280;54864;52.002;5.468;2023-04-28T05:05:54;100925.56;;;11.36;57.86
68075;BME280;54864;52.002;5.468;2023-04-28T05:06:56;100930.47;;;11.44;56.91
68075;BME280;54864;52.002;5.468;2023-04-28T05:07:57;100930.47;;;11.44;56.93
68075;BME280;54864;52.002;5.468;2023-04-28T05:08:59;100929.84;;;11.39;57.04
68075;BME280;54864;52.002;5.468;2023-04-28T05:10:03;100918.22;;;11.43;57.17
68075;BME280;54864;52.002;5.468;2023-04-28T05:11:06;100920.63;;;11.48;57.66
68075;BME280;54864;52.002;5.468;2023-04-28T05:12:10;100919.34;;;11.56;56.56
68075;BME280;54864;52.002;5.468;2023-04-28T05:13:14;100915.41;;;11.65;57.04
68075;BME280;54864;52.002;5.468;2023-04-28T05:14:15;100919.81;;;11.64;56.92
68075;BME280;54864;52.002;5.468;2023-04-28T05:15:17;100916.28;;;11.47;56.82
68075;BME280;54864;52.002;5.468;2023-04-28T05:16:18;100916.66;;;11.39;57.29
68075;BME280;54864;52.002;5.468;2023-04-28T05:17:21;100916.22;;;11.29;58.29
68075;BME280;54864;52.002;5.468;2023-04-28T05:18:23;100918.06;;;11.27;58.00
68075;BME280;54864;52.002;5.468;2023-04-28T05:19:25;100919.50;;;11.34;57.94
68075;BME280;54864;52.002;5.468;2023-04-28T05:20:25;100915.00;;;11.18;58.32
68075;BME280;54864;52.002;5.468;2023-04-28T05:21:27;100922.22;;;11.14;59.13
68075;BME280;54864;52.002;5.468;2023-04-28T05:22:28;100919.00;;;11.26;58.76
68075;BME280;54864;52.002;5.468;2023-04-28T05:23:30;100920.50;;;11.32;58.37
68075;BME280;54864;52.002;5.468;2023-04-28T05:24:31;100919.94;;;11.25;58.87